METAR Data
IDs: Format: Raw Decoded Include TAF

Data at: 2213 UTC 22 Sep 2020

KGRB 222153Z AUTO 21006KT 10SM CLR 26/14 A3004 RMK AO2 SLP170 T02560144
KGRB 222053Z AUTO 20005KT 10SM CLR 26/14 A3005 RMK AO2 SLP173 T02610144 58019
KGRB 221953Z AUTO 21006KT 10SM CLR 26/15 A3007 RMK AO2 SLP181 T02560150
KGRB 221853Z 19005KT 10SM CLR 24/14 A3009 RMK AO2 SLP186 T02440144
KGRB 221753Z 27007KT 240V300 10SM SCT120 24/14 A3011 RMK AO2 SLP194 T02390139 10244 20144 56015
KGRB 221653Z 24005KT 10SM SCT120 22/13 A3011 RMK AO2 SLP197 T02170128
KGRB 221553Z 23007KT 10SM CLR 21/12 A3014 RMK AO2 SLP205 T02110122
KGRB 221453Z 24007KT 10SM CLR 19/12 A3015 RMK AO2 SLP210 T01890117 55000
KGRB 221353Z 22005KT 10SM CLR 17/12 A3015 RMK AO2 SLP210 T01720117
KGRB 221253Z 24003KT 10SM SCT110 16/11 A3015 RMK AO2 SLP209 T01610111
KGRB 221153Z 21004KT 10SM CLR 14/11 A3015 RMK AO2 SLP210 70001 T01440111 10150 20133 55002
KGRB 221053Z 19003KT 10SM CLR 14/11 A3015 RMK AO2 SLP209 T01440106
KGRB 220953Z AUTO 19004KT 10SM CLR 14/11 A3015 RMK AO2 SLP209 T01440106
KGRB 220853Z AUTO 19006KT 10SM CLR 15/11 A3016 RMK AO2 SLP212 T01500106 58011
KGRB 220753Z AUTO 19004KT 10SM CLR 14/10 A3018 RMK AO2 SLP218 T01440100
KGRB 220653Z AUTO 19006KT 10SM CLR 15/11 A3019 RMK AO2 SLP221 T01500106
KGRB 220553Z AUTO 18005KT 10SM CLR 15/11 A3019 RMK AO2 SLP224 60001 T01500106 10183 20144 402280106 50001
KGRB 220453Z AUTO 19005KT 10SM CLR 15/11 A3020 RMK AO2 SLP229 T01500106
KGRB 220353Z AUTO 19005KT 10SM BKN110 15/11 A3020 RMK AO2 LTG DSNT NE RAB16E27 SLP226 P0001 T01500111
KGRB 220253Z AUTO 19007KT 10SM CLR 15/11 A3019 RMK AO2 SLP223 T01500106 58003
KGRB 220153Z AUTO 19005KT 10SM CLR 15/10 A3021 RMK AO2 SLP231 T01500100
KGRB 220053Z AUTO 17005KT 10SM CLR 17/11 A3021 RMK AO2 SLP232 T01670106
KGRB 212353Z AUTO 17008KT 10SM CLR 18/10 A3020 RMK AO2 SLP227 T01830100 10228 20183 55007
KGRB 212253Z AUTO 19007KT 10SM CLR 21/08 A3019 RMK AO2 SLP223 T02060078
KGRB 212153Z AUTO 19008KT 10SM CLR 22/07 A3020 RMK AO2 SLP227 T02220067
KGRB 212053Z AUTO 20009G19KT 10SM CLR 23/07 A3022 RMK AO2 SLP233 T02280067 56026
KGRB 211953Z 19013G21KT 10SM CLR 22/06 A3023 RMK AO2 SLP238 T02220061
KGRB 211853Z 19011G20KT 10SM CLR 22/06 A3026 RMK AO2 SLP249 T02220061
KGRB 211753Z 19008G18KT 10SM CLR 21/07 A3030 RMK AO2 SLP260 T02060067 10206 20122 58014
KGRB 211653Z 21013G19KT 10SM CLR 20/06 A3032 RMK AO2 SLP266 T02000061
KGRB 211553Z 20011KT CLR 20/06 A3032 RMK AO2 SLP269 T02000061 RVRNO $
KGRB 211453Z 19009G17KT 10SM CLR 17/07 A3034 RMK AO2 SLP276 T01670067 50000
KGRB 211353Z 18007KT 10SM CLR 14/08 A3034 RMK AO2 SLP276 T01440078
KGRB 211253Z 18007KT 10SM CLR 13/09 A3035 RMK AO2 SLP278 T01280089
KGRB 211153Z 19006KT 10SM CLR 12/09 A3034 RMK AO2 SLP275 T01220089 10128 20106 53003
KGRB 211053Z AUTO 18007KT 10SM CLR 12/09 A3032 RMK AO2 SLP270 T01220094